createdAt,value
2023-08-09T00:01:02.021Z,101045.09
2023-08-09T00:03:29.788Z,101038.19
2023-08-09T00:05:57.123Z,101037.94
2023-08-09T00:08:24.408Z,101051.88
2023-08-09T00:10:52.141Z,101055.44
2023-08-09T00:13:19.507Z,101045.00
2023-08-09T00:15:46.945Z,101039.63
2023-08-09T00:18:15.142Z,101035.97
2023-08-09T00:20:42.582Z,101044.63
2023-08-09T00:23:10.111Z,101043.00
2023-08-09T00:25:39.305Z,101029.38
2023-08-09T00:28:06.834Z,101039.84
2023-08-09T00:30:34.233Z,101039.75
2023-08-09T00:33:02.193Z,101047.78
2023-08-09T00:35:29.544Z,101039.16
2023-08-09T00:37:57.276Z,101044.50
2023-08-09T00:40:25.600Z,101050.63
2023-08-09T00:42:53.299Z,101044.50
2023-08-09T00:45:20.905Z,101039.34
2023-08-09T00:47:48.853Z,101051.25
2023-08-09T00:50:16.731Z,101059.00
2023-08-09T00:52:46.088Z,101050.91
2023-08-09T00:55:14.212Z,101048.38
2023-08-09T00:57:42.021Z,101051.19
2023-08-09T01:00:10.736Z,101054.75
2023-08-09T01:02:38.621Z,101063.41
2023-08-09T01:05:07.200Z,101066.88
2023-08-09T01:08:02.651Z,101066.78
2023-08-09T01:11:33.736Z,101067.56
2023-08-09T01:14:06.365Z,101059.56
2023-08-09T01:16:37.598Z,101053.53
2023-08-09T01:19:42.495Z,101069.44
2023-08-09T01:22:27.172Z,101071.22
2023-08-09T01:24:57.750Z,101069.44
2023-08-09T01:27:25.213Z,101069.53
2023-08-09T01:29:52.817Z,101065.38
2023-08-09T01:32:20.130Z,101063.88
2023-08-09T01:34:47.922Z,101058.78
2023-08-09T01:37:40.246Z,101070.25
2023-08-09T01:40:13.272Z,101079.94
2023-08-09T01:42:42.055Z,101079.28
2023-08-09T01:45:13.399Z,101076.75
2023-08-09T01:47:43.437Z,101077.78
2023-08-09T01:50:25.412Z,101075.31
2023-08-09T01:52:57.560Z,101075.41
2023-08-09T01:55:27.873Z,101082.66
2023-08-09T01:57:56.384Z,101076.75
2023-08-09T02:00:24.110Z,101084.56
2023-08-09T02:02:54.387Z,101083.03
2023-08-09T02:05:24.072Z,101090.84
2023-08-09T02:07:51.697Z,101098.91
2023-08-09T02:10:19.612Z,101100.69
2023-08-09T02:12:51.045Z,101097.28
2023-08-09T02:15:20.088Z,101094.66
2023-08-09T02:17:47.956Z,101094.00
2023-08-09T02:20:15.471Z,101092.13
2023-08-09T02:22:44.113Z,101095.72
2023-08-09T02:25:11.864Z,101097.56
2023-08-09T02:27:41.069Z,101099.47
2023-08-09T02:30:10.891Z,101096.25
2023-08-09T02:32:39.085Z,101100.56
2023-08-09T02:35:07.853Z,101096.44
2023-08-09T02:37:35.646Z,101105.44
2023-08-09T02:40:05.698Z,101112.50
2023-08-09T02:42:33.092Z,101107.31
2023-08-09T02:45:00.617Z,101115.31
2023-08-09T02:47:28.035Z,101121.56
2023-08-09T02:49:55.494Z,101127.75
2023-08-09T02:52:24.681Z,101123.47
2023-08-09T02:54:52.410Z,101122.69
2023-08-09T02:57:19.800Z,101130.66
2023-08-09T02:59:48.109Z,101144.75
2023-08-09T03:02:16.408Z,101140.50
2023-08-09T03:04:43.785Z,101131.88
2023-08-09T03:07:11.672Z,101132.06
2023-08-09T03:09:39.877Z,101144.34
2023-08-09T03:12:08.161Z,101140.22
2023-08-09T03:14:35.589Z,101143.84
2023-08-09T03:17:03.327Z,101142.06
2023-08-09T03:19:30.881Z,101140.47
2023-08-09T03:21:58.533Z,101142.13
2023-08-09T03:24:26.113Z,101147.41
2023-08-09T03:26:53.536Z,101149.28
2023-08-09T03:29:21.369Z,101150.03
2023-08-09T03:31:49.806Z,101151.91
2023-08-09T03:34:19.748Z,101159.78
2023-08-09T03:36:47.193Z,101153.00
2023-08-09T03:39:14.582Z,101149.78
2023-08-09T03:41:42.975Z,101160.31
2023-08-09T03:44:11.939Z,101163.09
2023-08-09T03:46:39.437Z,101175.50
2023-08-09T03:49:09.864Z,101179.13
2023-08-09T03:51:39.737Z,101169.63
2023-08-09T03:54:07.767Z,101177.75
2023-08-09T03:56:35.107Z,101180.56
2023-08-09T03:59:03.045Z,101175.56
2023-08-09T04:01:30.469Z,101180.06
2023-08-09T04:03:58.170Z,101185.47
2023-08-09T04:06:25.556Z,101189.13
2023-08-09T04:08:53.657Z,101183.09
2023-08-09T04:11:20.952Z,101192.78
2023-08-09T04:13:48.646Z,101191.06
2023-08-09T04:16:18.234Z,101190.22
2023-08-09T04:18:46.867Z,101197.16
2023-08-09T04:21:14.146Z,101198.88
2023-08-09T04:23:41.478Z,101194.44
2023-08-09T04:26:08.811Z,101196.25
2023-08-09T04:28:36.252Z,101191.81
2023-08-09T04:31:05.047Z,101196.06
2023-08-09T04:33:33.458Z,101199.69
2023-08-09T04:36:00.989Z,101203.19
2023-08-09T04:38:28.456Z,101210.13
2023-08-09T04:40:55.844Z,101215.38
2023-08-09T04:43:23.231Z,101208.28
2023-08-09T04:45:51.640Z,101207.78
2023-08-09T04:48:19.327Z,101220.25
2023-08-09T04:50:48.803Z,101218.22
2023-08-09T04:53:16.163Z,101231.00
2023-08-09T04:55:43.595Z,101218.44
2023-08-09T04:58:10.973Z,101214.63
2023-08-09T05:00:38.563Z,101214.28
2023-08-09T05:03:06.375Z,101226.59
2023-08-09T05:05:33.767Z,101228.44
2023-08-09T05:08:01.169Z,101233.63
2023-08-09T05:10:28.719Z,101230.72
2023-08-09T05:12:56.572Z,101231.59
2023-08-09T05:15:23.944Z,101245.59
2023-08-09T05:17:51.342Z,101246.41
2023-08-09T05:20:19.177Z,101247.47
2023-08-09T05:22:46.780Z,101247.56
2023-08-09T05:25:14.203Z,101244.91
2023-08-09T05:27:41.920Z,101243.03
2023-08-09T05:30:10.192Z,101251.50
2023-08-09T05:32:37.631Z,101248.63
2023-08-09T05:35:05.820Z,101254.66
2023-08-09T05:37:33.217Z,101259.75
2023-08-09T05:40:00.838Z,101260.41
2023-08-09T05:42:28.263Z,101256.94
2023-08-09T05:44:55.807Z,101261.16
2023-08-09T05:47:23.301Z,101260.72
2023-08-09T05:49:50.656Z,101263.09
2023-08-09T05:52:17.968Z,101261.91
2023-08-09T05:54:45.404Z,101272.84
2023-08-09T05:57:12.736Z,101265.44
2023-08-09T05:59:40.752Z,101264.50
2023-08-09T06:02:08.576Z,101261.31
2023-08-09T06:04:36.264Z,101262.94
2023-08-09T06:07:05.149Z,101268.63
2023-08-09T06:12:17.624Z,101278.53
2023-08-09T06:14:45.003Z,101285.31
2023-08-09T06:17:12.675Z,101286.81
2023-08-09T06:19:40.231Z,101282.13
2023-08-09T06:22:07.580Z,101290.69
2023-08-09T06:24:34.996Z,101297.56
2023-08-09T06:27:02.595Z,101304.31
2023-08-09T06:29:30.202Z,101305.94
2023-08-09T06:31:57.816Z,101300.41
2023-08-09T06:34:25.374Z,101307.09
2023-08-09T06:36:52.720Z,101306.72
2023-08-09T06:39:20.531Z,101316.63
2023-08-09T06:41:50.624Z,101309.19
2023-08-09T06:44:17.988Z,101300.06
2023-08-09T06:46:45.579Z,101318.13
2023-08-09T06:49:13.221Z,101324.16
2023-08-09T06:51:40.626Z,101320.47
2023-08-09T06:54:08.157Z,101321.88
2023-08-09T06:56:36.771Z,101321.59
2023-08-09T06:59:04.508Z,101331.66
2023-08-09T07:01:33.164Z,101332.13
2023-08-09T07:04:02.478Z,101332.78
2023-08-09T07:06:30.097Z,101337.50
2023-08-09T07:08:57.661Z,101339.75
2023-08-09T07:11:25.068Z,101334.66
2023-08-09T07:13:52.501Z,101336.88
2023-08-09T07:16:20.026Z,101347.16
2023-08-09T07:18:47.469Z,101346.66
2023-08-09T07:21:14.868Z,101347.78
2023-08-09T07:23:56.693Z,101344.25
2023-08-09T07:26:26.798Z,101340.50
2023-08-09T07:28:54.375Z,101346.97
2023-08-09T07:31:24.852Z,101345.88
2023-08-09T07:33:52.596Z,101350.84
2023-08-09T07:36:20.549Z,101357.50
2023-08-09T07:38:48.167Z,101356.34
2023-08-09T07:41:15.769Z,101355.84
2023-08-09T07:43:43.202Z,101351.53
2023-08-09T07:46:11.933Z,101358.44
2023-08-09T07:48:39.429Z,101367.53
2023-08-09T07:51:07.543Z,101369.88
2023-08-09T07:53:34.850Z,101378.00
2023-08-09T07:56:02.208Z,101384.69
2023-08-09T07:58:29.560Z,101377.47
2023-08-09T08:00:57.020Z,101372.84
2023-08-09T08:03:24.777Z,101378.53
2023-08-09T08:05:52.572Z,101391.03
2023-08-09T08:08:20.244Z,101381.59
2023-08-09T08:10:48.372Z,101385.50
2023-08-09T08:13:15.814Z,101393.66
2023-08-09T08:15:43.419Z,101390.34
2023-08-09T08:18:10.795Z,101399.63
2023-08-09T08:20:38.350Z,101399.63
2023-08-09T08:23:07.385Z,101398.19
2023-08-09T08:25:35.359Z,101401.66
2023-08-09T08:28:03.074Z,101412.47
2023-08-09T08:30:30.508Z,101417.53
2023-08-09T08:32:58.505Z,101411.69
2023-08-09T08:35:34.829Z,101411.69
2023-08-09T08:38:03.070Z,101415.06
2023-08-09T08:40:32.872Z,101415.94
2023-08-09T08:43:00.548Z,101419.00
2023-08-09T08:45:28.189Z,101426.31
2023-08-09T08:47:55.642Z,101431.66
2023-08-09T08:50:26.501Z,101438.00
2023-08-09T08:52:55.776Z,101439.25
2023-08-09T08:55:25.249Z,101436.28
2023-08-09T08:57:54.273Z,101438.25
2023-08-09T09:00:27.817Z,101431.25
2023-08-09T09:03:00.270Z,101435.53
2023-08-09T09:05:28.051Z,101441.84
2023-08-09T09:07:58.286Z,101436.06
2023-08-09T09:10:27.228Z,101446.22
2023-08-09T09:12:57.205Z,101449.03
2023-08-09T09:15:28.364Z,101447.03
2023-08-09T09:17:56.441Z,101449.16
2023-08-09T09:20:34.973Z,101455.72
2023-08-09T09:23:02.657Z,101452.13
2023-08-09T09:25:30.425Z,101459.72
2023-08-09T09:27:59.925Z,101454.91
2023-08-09T09:30:33.268Z,101453.75
2023-08-09T09:33:05.084Z,101456.78
2023-08-09T09:35:34.666Z,101458.91
2023-08-09T09:38:04.704Z,101459.78
2023-08-09T09:40:36.944Z,101454.78
2023-08-09T09:43:07.186Z,101452.13
2023-08-09T09:45:38.359Z,101450.72
2023-08-09T09:48:18.197Z,101451.13
2023-08-09T09:50:46.483Z,101449.41
2023-08-09T09:53:16.475Z,101461.16
2023-08-09T09:55:46.413Z,101457.09
2023-08-09T09:58:14.347Z,101447.31
2023-08-09T10:00:50.568Z,101448.41
2023-08-09T10:03:26.164Z,101446.72
2023-08-09T10:05:59.083Z,101437.34
2023-08-09T10:08:30.936Z,101446.28
2023-08-09T10:11:00.337Z,101449.22
2023-08-09T10:13:31.507Z,101452.72
2023-08-09T10:16:06.664Z,101448.66
2023-08-09T10:18:51.741Z,101451.03
2023-08-09T10:21:21.017Z,101445.44
2023-08-09T10:24:11.796Z,101448.94
2023-08-09T10:26:47.329Z,101453.69
2023-08-09T10:29:25.033Z,101451.81
2023-08-09T10:32:03.992Z,101459.69
2023-08-09T10:34:44.393Z,101465.31
2023-08-09T10:37:24.377Z,101471.22
2023-08-09T10:40:19.383Z,101473.59
2023-08-09T10:42:51.835Z,101475.56
2023-08-09T10:45:19.209Z,101477.50
2023-08-09T10:47:47.933Z,101470.09
2023-08-09T10:50:16.084Z,101466.22
2023-08-09T10:52:50.307Z,101466.91
2023-08-09T10:55:21.225Z,101469.69
2023-08-09T10:57:51.813Z,101454.03
2023-08-09T11:00:22.668Z,101458.44
2023-08-09T11:02:54.542Z,101462.91
2023-08-09T11:05:23.943Z,101459.97
2023-08-09T11:07:57.232Z,101463.66
2023-08-09T11:10:37.289Z,101453.94
2023-08-09T11:13:12.387Z,101465.81
2023-08-09T11:15:47.761Z,101459.97
2023-08-09T11:18:17.260Z,101451.81
2023-08-09T11:20:46.310Z,101456.41
2023-08-09T11:23:14.372Z,101450.41
2023-08-09T11:25:42.331Z,101456.16
2023-08-09T11:28:14.789Z,101458.97
2023-08-09T11:30:43.631Z,101460.53
2023-08-09T11:33:13.497Z,101470.88
2023-08-09T11:35:47.334Z,101464.13
2023-08-09T11:38:18.191Z,101475.34
2023-08-09T11:40:53.466Z,101473.84
2023-08-09T11:43:23.509Z,101472.03
2023-08-09T11:45:58.438Z,101475.56
2023-08-09T11:48:33.008Z,101476.69
2023-08-09T11:51:16.792Z,101479.34
2023-08-09T11:53:49.857Z,101476.00
2023-08-09T11:56:27.047Z,101473.47
2023-08-09T11:58:56.657Z,101491.44
2023-08-09T12:01:35.157Z,101489.88
2023-08-09T12:04:16.729Z,101489.03
2023-08-09T12:06:53.111Z,101490.28
2023-08-09T12:09:41.649Z,101483.28
2023-08-09T12:12:19.237Z,101494.22
2023-08-09T12:14:50.677Z,101502.47
2023-08-09T12:17:29.945Z,101494.97
2023-08-09T12:20:08.215Z,101499.88
2023-08-09T12:22:35.696Z,101492.44
2023-08-09T12:25:04.495Z,101495.44
2023-08-09T12:27:32.974Z,101492.63
2023-08-09T12:30:00.592Z,101492.38
2023-08-09T12:32:31.025Z,101499.28
2023-08-09T12:34:58.458Z,101496.63
2023-08-09T12:37:26.301Z,101500.81
2023-08-09T12:39:53.724Z,101499.56
2023-08-09T12:42:21.751Z,101503.94
2023-08-09T12:44:49.164Z,101503.09
2023-08-09T12:47:16.635Z,101500.41
2023-08-09T12:49:44.047Z,101500.38
2023-08-09T12:52:11.492Z,101496.88
2023-08-09T12:54:38.860Z,101504.75
2023-08-09T12:57:06.483Z,101504.75
2023-08-09T12:59:33.956Z,101506.44
2023-08-09T13:02:02.611Z,101506.16
2023-08-09T13:04:31.362Z,101501.50
2023-08-09T13:06:59.755Z,101505.00
2023-08-09T13:09:29.002Z,101512.34
2023-08-09T13:12:11.713Z,101520.19
2023-08-09T13:14:39.796Z,101522.75
2023-08-09T13:17:08.285Z,101514.88
2023-08-09T13:19:38.418Z,101518.81
2023-08-09T13:22:07.414Z,101513.06
2023-08-09T13:24:35.054Z,101520.22
2023-08-09T13:27:04.257Z,101516.56
2023-08-09T13:29:31.834Z,101520.03
2023-08-09T13:32:01.732Z,101523.78
2023-08-09T13:34:30.266Z,101529.31
2023-08-09T13:36:57.723Z,101534.84
2023-08-09T13:39:25.799Z,101535.84
2023-08-09T13:41:53.269Z,101530.59
2023-08-09T13:44:20.685Z,101531.38
2023-08-09T13:46:48.028Z,101529.88
2023-08-09T13:49:15.777Z,101532.69
2023-08-09T13:51:43.204Z,101533.81
2023-08-09T13:54:10.613Z,101529.88
2023-08-09T13:56:37.969Z,101534.41
2023-08-09T13:59:05.529Z,101540.59
2023-08-09T14:01:34.890Z,101545.28
2023-08-09T14:04:02.343Z,101543.09
2023-08-09T14:06:31.083Z,101543.09
2023-08-09T14:08:59.748Z,101542.66
2023-08-09T14:11:27.315Z,101548.44
2023-08-09T14:13:54.768Z,101550.63
2023-08-09T14:16:22.174Z,101546.53
2023-08-09T14:18:49.956Z,101554.47
2023-08-09T14:21:17.451Z,101544.59
2023-08-09T14:23:45.288Z,101555.31
2023-08-09T14:26:12.863Z,101550.94
2023-08-09T14:28:40.328Z,101556.47
2023-08-09T14:31:07.827Z,101563.84
2023-08-09T14:33:35.348Z,101560.06
2023-08-09T14:36:02.777Z,101555.50
2023-08-09T14:38:30.162Z,101549.13
2023-08-09T14:40:57.522Z,101563.66
2023-08-09T14:43:25.339Z,101570.31
2023-08-09T14:45:52.959Z,101576.00
2023-08-09T14:48:20.478Z,101570.44
2023-08-09T14:50:47.850Z,101574.69
2023-08-09T14:53:15.444Z,101564.72
2023-08-09T14:55:43.591Z,101575.28
2023-08-09T14:58:11.733Z,101584.47
2023-08-09T15:00:40.337Z,101578.47
2023-08-09T15:03:07.982Z,101585.97
2023-08-09T15:05:36.121Z,101583.56
2023-08-09T15:08:03.736Z,101592.88
2023-08-09T15:10:34.457Z,101584.25
2023-08-09T15:13:04.348Z,101583.44
2023-08-09T15:15:32.294Z,101590.63
2023-08-09T15:17:59.820Z,101601.03
2023-08-09T15:20:27.428Z,101611.16
2023-08-09T15:22:55.026Z,101607.50
2023-08-09T15:25:25.511Z,101617.34
2023-08-09T15:27:54.630Z,101611.56
2023-08-09T15:30:22.319Z,101624.19
2023-08-09T15:32:55.638Z,101615.63
2023-08-09T15:35:23.654Z,101624.19
2023-08-09T15:37:52.343Z,101627.53
2023-08-09T15:40:20.754Z,101633.66
2023-08-09T15:42:48.213Z,101627.63
2023-08-09T15:45:15.775Z,101623.31
2023-08-09T15:47:44.046Z,101629.28
2023-08-09T15:50:13.169Z,101629.16
2023-08-09T15:52:43.207Z,101618.13
2023-08-09T15:55:10.959Z,101622.47
2023-08-09T15:57:38.938Z,101617.06
2023-08-09T16:00:07.662Z,101613.31
2023-08-09T16:02:35.082Z,101623.31
2023-08-09T16:05:04.043Z,101608.47
2023-08-09T16:07:31.614Z,101613.16
2023-08-09T16:09:59.649Z,101614.94
2023-08-09T16:12:27.113Z,101618.97
2023-08-09T16:14:54.582Z,101623.41
2023-08-09T16:17:21.975Z,101620.53
2023-08-09T16:19:50.255Z,101622.69
2023-08-09T16:22:17.783Z,101623.69
2023-08-09T16:24:45.207Z,101626.38
2023-08-09T16:27:12.600Z,101630.34
2023-08-09T16:29:39.998Z,101629.38
2023-08-09T16:32:08.789Z,101627.00
2023-08-09T16:34:36.660Z,101639.38
2023-08-09T16:37:05.125Z,101638.34
2023-08-09T16:39:32.780Z,101639.91
2023-08-09T16:42:00.249Z,101642.53
2023-08-09T16:44:27.567Z,101639.75
2023-08-09T16:46:55.145Z,101641.72
2023-08-09T16:49:22.606Z,101641.25
2023-08-09T16:51:49.940Z,101636.06
2023-08-09T16:54:18.503Z,101640.97
2023-08-09T16:56:45.987Z,101640.84
2023-08-09T16:59:13.533Z,101645.47
2023-08-09T17:01:41.831Z,101660.47
2023-08-09T17:04:09.264Z,101655.13
2023-08-09T17:06:36.687Z,101657.72
2023-08-09T17:09:04.407Z,101662.06
2023-08-09T17:11:31.756Z,101666.59
2023-08-09T17:13:59.143Z,101664.03
2023-08-09T17:16:26.556Z,101671.00
2023-08-09T17:18:53.984Z,101665.03
2023-08-09T17:21:21.342Z,101671.03
2023-08-09T17:23:48.703Z,101671.31
2023-08-09T17:26:16.045Z,101675.50
2023-08-09T17:28:43.523Z,101676.97
2023-08-09T17:31:11.164Z,101677.59
2023-08-09T17:33:38.616Z,101674.09
2023-08-09T17:36:06.988Z,101686.25
2023-08-09T17:38:37.268Z,101684.34
2023-08-09T17:41:04.890Z,101682.44
2023-08-09T17:43:32.538Z,101689.34
2023-08-09T17:45:59.981Z,101681.03
2023-08-09T17:48:27.365Z,101690.47
2023-08-09T17:50:54.737Z,101689.13
2023-08-09T17:53:23.317Z,101695.56
2023-08-09T17:55:50.721Z,101702.78
2023-08-09T17:58:18.281Z,101699.41
2023-08-09T18:00:45.711Z,101700.38
2023-08-09T18:03:13.528Z,101697.72
2023-08-09T18:05:41.164Z,101696.16
2023-08-09T18:08:09.306Z,101707.41
2023-08-09T18:10:36.762Z,101715.75
2023-08-09T18:13:04.574Z,101715.72
2023-08-09T18:15:32.164Z,101719.81
2023-08-09T18:17:59.666Z,101716.69
2023-08-09T18:20:27.134Z,101724.44
2023-08-09T18:22:54.478Z,101725.13
2023-08-09T18:25:23.342Z,101724.16
2023-08-09T18:27:50.722Z,101733.41
2023-08-09T18:30:18.170Z,101726.03
2023-08-09T18:32:46.163Z,101722.91
2023-08-09T18:35:18.262Z,101737.59
2023-08-09T18:37:48.467Z,101736.28
2023-08-09T18:40:17.217Z,101735.03
2023-08-09T18:42:46.874Z,101740.81
2023-08-09T18:45:16.579Z,101735.91
2023-08-09T18:47:46.123Z,101747.00
2023-08-09T18:50:13.804Z,101741.41
2023-08-09T18:52:41.832Z,101748.13
2023-08-09T18:55:10.952Z,101745.09
2023-08-09T18:57:39.897Z,101746.59
2023-08-09T19:00:13.519Z,101736.53
2023-08-09T19:02:45.812Z,101745.91
2023-08-09T19:05:13.876Z,101747.19
2023-08-09T19:07:41.339Z,101752.72
2023-08-09T19:10:11.764Z,101753.16
2023-08-09T19:12:39.702Z,101766.63
2023-08-09T19:15:08.671Z,101759.34
2023-08-09T19:17:36.329Z,101770.03
2023-08-09T19:20:07.990Z,101772.19
2023-08-09T19:22:35.642Z,101777.81
2023-08-09T19:25:05.455Z,101770.47
2023-08-09T19:27:32.998Z,101776.00
2023-08-09T19:30:01.331Z,101771.31
2023-08-09T19:32:29.281Z,101784.03
2023-08-09T19:34:56.770Z,101785.41
2023-08-09T19:37:24.191Z,101784.03
2023-08-09T19:39:51.962Z,101787.81
2023-08-09T19:42:19.272Z,101780.19
2023-08-09T19:44:46.620Z,101782.31
2023-08-09T19:47:13.965Z,101780.91
2023-08-09T19:49:43.362Z,101786.63
2023-08-09T19:52:12.129Z,101778.34
2023-08-09T19:54:39.709Z,101789.06
2023-08-09T19:57:07.388Z,101792.00
2023-08-09T19:59:35.044Z,101790.63
2023-08-09T20:02:03.635Z,101797.91
2023-08-09T20:04:31.270Z,101793.88
2023-08-09T20:06:58.616Z,101799.47
2023-08-09T20:09:26.936Z,101792.69
2023-08-09T20:11:54.384Z,101793.03
2023-08-09T20:14:21.768Z,101796.00
2023-08-09T20:16:49.234Z,101797.13
2023-08-09T20:19:17.134Z,101803.69
2023-08-09T20:21:44.770Z,101809.38
2023-08-09T20:24:43.405Z,101803.50
2023-08-09T20:27:12.922Z,101811.72
2023-08-09T20:29:41.595Z,101815.53
2023-08-09T20:32:09.457Z,101816.66
2023-08-09T20:34:37.528Z,101813.38
2023-08-09T20:37:05.055Z,101805.81
2023-08-09T20:39:36.091Z,101814.03
2023-08-09T20:42:03.829Z,101801.22
2023-08-09T20:44:36.306Z,101806.78
2023-08-09T20:47:07.036Z,101804.44
2023-08-09T20:49:35.145Z,101794.97
2023-08-09T20:52:04.125Z,101808.28
2023-08-09T20:54:31.962Z,101809.13
2023-08-09T20:56:59.868Z,101813.75
2023-08-09T20:59:33.428Z,101816.69
2023-08-09T21:02:00.976Z,101820.53
2023-08-09T21:04:28.661Z,101814.69
2023-08-09T21:06:56.117Z,101814.88
2023-08-09T21:09:23.831Z,101812.44
2023-08-09T21:11:51.246Z,101816.97
2023-08-09T21:14:18.609Z,101814.56
2023-08-09T21:16:45.977Z,101811.38
2023-08-09T21:19:13.326Z,101815.69
2023-08-09T21:21:41.373Z,101799.44
2023-08-09T21:26:39.177Z,101818.13
2023-08-09T21:29:07.736Z,101826.16
2023-08-09T21:31:35.322Z,101823.78
2023-08-09T21:34:03.775Z,101823.13
2023-08-09T21:36:31.160Z,101823.19
2023-08-09T21:38:58.612Z,101825.16
2023-08-09T21:41:26.598Z,101833.25
2023-08-09T21:43:53.982Z,101827.50
2023-08-09T21:46:21.369Z,101837.47
2023-08-09T21:48:48.715Z,101839.50
2023-08-09T21:51:16.121Z,101842.50
2023-08-09T21:53:43.978Z,101836.66
2023-08-09T21:56:11.511Z,101836.91
2023-08-09T21:58:39.037Z,101832.81
2023-08-09T22:01:06.416Z,101833.00
2023-08-09T22:03:33.912Z,101839.31
2023-08-09T22:06:01.487Z,101835.06
2023-08-09T22:08:28.927Z,101837.69
2023-08-09T22:10:56.701Z,101835.91
2023-08-09T22:13:24.590Z,101835.06
2023-08-09T22:15:52.753Z,101827.31
2023-08-09T22:18:22.398Z,101833.34
2023-08-09T22:20:50.018Z,101833.50
2023-08-09T22:23:17.446Z,101832.00
2023-08-09T22:25:45.298Z,101844.41
2023-08-09T22:28:13.443Z,101838.56
2023-08-09T22:30:45.683Z,101849.19
2023-08-09T22:33:13.306Z,101841.44
2023-08-09T22:35:40.742Z,101838.13
2023-08-09T22:38:08.161Z,101843.50
2023-08-09T22:40:38.182Z,101842.72
2023-08-09T22:43:06.773Z,101835.84
2023-08-09T22:45:36.751Z,101841.03
2023-08-09T22:48:05.502Z,101844.59
2023-08-09T22:50:33.913Z,101842.78
2023-08-09T22:53:01.368Z,101849.78
2023-08-09T22:55:28.857Z,101855.16
2023-08-09T22:57:56.253Z,101847.31
2023-08-09T23:00:23.611Z,101850.97
2023-08-09T23:02:51.062Z,101851.84
2023-08-09T23:05:18.546Z,101854.38
2023-08-09T23:07:45.896Z,101849.03
2023-08-09T23:10:13.571Z,101851.41
2023-08-09T23:12:40.886Z,101856.44
2023-08-09T23:15:09.390Z,101853.63
2023-08-09T23:17:36.913Z,101849.94
2023-08-09T23:20:07.193Z,101853.22
2023-08-09T23:22:34.849Z,101858.31
2023-08-09T23:25:02.279Z,101861.63
2023-08-09T23:27:29.654Z,101870.28
2023-08-09T23:29:56.964Z,101878.22
2023-08-09T23:32:24.431Z,101876.44
2023-08-09T23:34:51.747Z,101868.78
2023-08-09T23:37:19.110Z,101868.94
2023-08-09T23:39:46.963Z,101874.97
2023-08-09T23:42:14.300Z,101874.91
2023-08-09T23:44:41.645Z,101874.91
2023-08-09T23:47:08.996Z,101883.75
2023-08-09T23:49:36.476Z,101880.09
2023-08-09T23:52:04.350Z,101878.22
2023-08-09T23:54:33.238Z,101877.13
2023-08-09T23:57:00.562Z,101880.59
2023-08-09T23:59:28.404Z,101880.69
